Time;durP1;ratioP1;P1;durP2;ratioP2;P2;SDS_P1;SDS_P2;PMS_P1;PMS_P2;Temp;Humidity;BMP_temperature;BMP_pressure;BME280_temperature;BME280_humidity;BME280_pressure;Samples;Min_cycle;Max_cycle;Signal;HPM_P1;HPM_P2
2023/04/22 00:01:57;;;;;;;1.63;1.53;;;;;;;;;;5041273;28;20213;-78
2023/04/22 00:04:22;;;;;;;1.70;1.60;;;;;;;;;;5034081;28;20188;-78
2023/04/22 00:06:48;;;;;;;1.87;1.70;;;;;;;;;;5020324;28;20189;-78
2023/04/22 00:09:13;;;;;;;2.07;1.87;;;;;;;;;;5016217;28;20209;-78
2023/04/22 00:11:38;;;;;;;3.03;2.20;;;;;;;;;;5018137;28;20182;-78
2023/04/22 00:14:03;;;;;;;2.10;1.90;;;;;;;;;;5023250;28;20181;-78
2023/04/22 00:16:28;;;;;;;2.27;1.80;;;;;;;;;;5031932;28;20202;-78
2023/04/22 00:18:54;;;;;;;2.70;1.73;;;;;;;;;;5025419;28;20262;-78
2023/04/22 00:21:19;;;;;;;1.90;1.73;;;;;;;;;;5016910;28;20233;-78
2023/04/22 00:23:44;;;;;;;2.00;1.83;;;;;;;;;;5013610;28;20220;-78
2023/04/22 00:26:10;;;;;;;3.27;2.00;;;;;;;;;;5022988;28;20200;-78
2023/04/22 00:28:35;;;;;;;2.00;1.90;;;;;;;;;;5022446;28;20174;-78
2023/04/22 00:31:02;;;;;;;2.27;1.77;;;;;;;;;;5020871;28;20189;-78
2023/04/22 00:33:27;;;;;;;2.77;2.07;;;;;;;;;;5037185;28;20186;-78
2023/04/22 00:35:53;;;;;;;2.70;2.20;;;;;;;;;;5014293;28;20271;-78
2023/04/22 00:38:18;;;;;;;3.77;1.80;;;;;;;;;;5019866;28;20205;-78
2023/04/22 00:40:44;;;;;;;3.20;2.20;;;;;;;;;;5014642;28;20206;-78
2023/04/22 00:43:10;;;;;;;1.97;1.87;;;;;;;;;;5016877;28;20190;-78
2023/04/22 00:45:35;;;;;;;2.30;2.10;;;;;;;;;;5011836;28;20186;-78
2023/04/22 00:48:01;;;;;;;2.43;2.07;;;;;;;;;;5012317;28;20284;-78
2023/04/22 00:50:26;;;;;;;2.07;1.97;;;;;;;;;;5007150;28;20182;-78
2023/04/22 00:52:51;;;;;;;2.50;2.30;;;;;;;;;;5035695;28;20259;-78
2023/04/22 00:55:17;;;;;;;2.50;2.30;;;;;;;;;;5015630;28;20268;-78
2023/04/22 00:57:42;;;;;;;2.47;2.27;;;;;;;;;;5019823;28;20177;-78
2023/04/22 01:00:09;;;;;;;2.03;1.83;;;;;;;;;;5028296;28;20173;-78
2023/04/22 01:02:34;;;;;;;2.43;2.23;;;;;;;;;;5013043;28;20211;-78
2023/04/22 01:05:00;;;;;;;2.50;2.30;;;;;;;;;;5017818;28;20186;-78
2023/04/22 01:07:26;;;;;;;2.90;2.10;;;;;;;;;;5021298;28;20185;-78
2023/04/22 01:09:51;;;;;;;2.33;2.13;;;;;;;;;;5018242;28;20181;-78
2023/04/22 01:12:16;;;;;;;2.13;1.93;;;;;;;;;;5013091;28;20185;-78
2023/04/22 01:14:41;;;;;;;2.20;2.00;;;;;;;;;;5016346;28;20187;-78
2023/04/22 01:17:08;;;;;;;2.73;2.43;;;;;;;;;;5012448;28;20181;-78
2023/04/22 01:19:34;;;;;;;2.33;2.13;;;;;;;;;;5012196;28;20226;-78
2023/04/22 01:22:00;;;;;;;2.57;2.10;;;;;;;;;;5028438;28;20203;-78
2023/04/22 01:24:26;;;;;;;2.50;2.30;;;;;;;;;;5031945;28;20213;-78
2023/04/22 01:26:51;;;;;;;2.07;1.90;;;;;;;;;;5023512;28;20221;-78
2023/04/22 01:29:17;;;;;;;3.20;1.97;;;;;;;;;;5019823;28;20249;-78
2023/04/22 01:31:42;;;;;;;1.73;1.63;;;;;;;;;;5023628;28;20240;-78
2023/04/22 01:34:07;;;;;;;2.80;1.83;;;;;;;;;;5043118;28;20263;-78
2023/04/22 01:36:32;;;;;;;2.97;1.77;;;;;;;;;;5033655;28;20178;-78
2023/04/22 01:38:58;;;;;;;1.97;1.80;;;;;;;;;;5015834;28;20185;-78
2023/04/22 01:41:24;;;;;;;2.43;1.90;;;;;;;;;;5032497;28;20209;-78
2023/04/22 01:43:50;;;;;;;1.87;1.67;;;;;;;;;;5021592;28;20174;-78
2023/04/22 01:46:16;;;;;;;2.23;1.80;;;;;;;;;;5022026;28;20184;-78
2023/04/22 01:48:41;;;;;;;7.43;2.20;;;;;;;;;;5026601;28;20185;-78
2023/04/22 01:51:06;;;;;;;2.03;1.90;;;;;;;;;;5019342;28;20187;-78
2023/04/22 01:53:31;;;;;;;2.20;2.00;;;;;;;;;;5018550;28;20217;-78
2023/04/22 01:55:57;;;;;;;2.87;2.67;;;;;;;;;;5022015;28;20234;-78
2023/04/22 01:58:22;;;;;;;2.40;2.20;;;;;;;;;;5015425;28;20201;-78
2023/04/22 02:00:47;;;;;;;2.50;2.30;;;;;;;;;;5017899;28;20219;-78
2023/04/22 02:03:12;;;;;;;2.53;2.33;;;;;;;;;;5021910;28;20220;-78
2023/04/22 02:05:38;;;;;;;3.87;2.90;;;;;;;;;;5013935;28;20177;-78
2023/04/22 02:08:03;;;;;;;3.90;3.40;;;;;;;;;;5012360;28;20173;-78
2023/04/22 02:10:29;;;;;;;2.63;2.37;;;;;;;;;;5016607;28;20319;-78
2023/04/22 02:12:54;;;;;;;2.43;2.23;;;;;;;;;;5011881;28;20211;-78
2023/04/22 02:15:20;;;;;;;2.83;2.43;;;;;;;;;;5030834;28;20177;-78
2023/04/22 02:17:46;;;;;;;2.80;2.60;;;;;;;;;;5008656;28;20237;-78
2023/04/22 02:20:11;;;;;;;2.77;2.57;;;;;;;;;;5018600;28;20185;-78
2023/04/22 02:22:37;;;;;;;3.40;3.10;;;;;;;;;;5019847;28;20207;-78
2023/04/22 02:25:03;;;;;;;3.37;3.07;;;;;;;;;;5036669;28;20219;-78
2023/04/22 02:27:29;;;;;;;3.20;2.77;;;;;;;;;;5014842;28;20178;-78
2023/04/22 02:29:54;;;;;;;2.90;2.70;;;;;;;;;;5018868;28;20240;-78
2023/04/22 02:32:19;;;;;;;3.47;3.17;;;;;;;;;;5015799;28;20181;-78
2023/04/22 02:34:46;;;;;;;4.73;3.37;;;;;;;;;;5020021;28;20195;-78
2023/04/22 02:37:11;;;;;;;4.23;3.73;;;;;;;;;;5016167;28;20181;-78
2023/04/22 02:39:36;;;;;;;4.37;3.70;;;;;;;;;;5036438;28;20188;-78
2023/04/22 02:42:01;;;;;;;3.40;3.10;;;;;;;;;;5014576;28;20219;-78
2023/04/22 02:44:27;;;;;;;4.73;3.80;;;;;;;;;;5021181;28;20181;-78
2023/04/22 02:46:52;;;;;;;3.93;3.60;;;;;;;;;;5014743;28;20281;-78
2023/04/22 02:49:17;;;;;;;5.60;4.17;;;;;;;;;;5020454;28;20214;-78
2023/04/22 02:51:42;;;;;;;4.13;3.73;;;;;;;;;;5027847;28;20229;-78
2023/04/22 02:54:07;;;;;;;4.40;4.00;;;;;;;;;;5018908;28;20181;-78
2023/04/22 02:56:33;;;;;;;4.40;4.00;;;;;;;;;;5015047;28;20206;-78
2023/04/22 02:58:58;;;;;;;5.90;4.63;;;;;;;;;;5012652;28;20185;-78
2023/04/22 03:01:23;;;;;;;5.00;4.27;;;;;;;;;;5010319;28;20211;-78
2023/04/22 03:03:48;;;;;;;5.17;4.67;;;;;;;;;;5014418;28;20196;-78
2023/04/22 03:06:14;;;;;;;5.73;4.53;;;;;;;;;;5023905;28;20214;-78
2023/04/22 03:08:39;;;;;;;4.63;4.23;;;;;;;;;;5023218;28;20185;-78
2023/04/22 03:11:04;;;;;;;4.37;4.03;;;;;;;;;;5023904;28;20239;-78
2023/04/22 03:13:29;;;;;;;5.30;4.20;;;;;;;;;;5019262;28;20181;-78
2023/04/22 03:15:55;;;;;;;5.07;4.57;;;;;;;;;;5012851;28;20190;-78
2023/04/22 03:18:20;;;;;;;6.63;4.80;;;;;;;;;;5039536;28;20259;-78
2023/04/22 03:20:45;;;;;;;4.83;4.43;;;;;;;;;;5036048;28;20213;-78
2023/04/22 03:23:10;;;;;;;5.80;5.20;;;;;;;;;;5014817;28;20204;-78
2023/04/22 03:25:36;;;;;;;6.77;4.70;;;;;;;;;;5021848;28;20220;-78
2023/04/22 03:28:02;;;;;;;5.70;4.87;;;;;;;;;;5022908;28;20275;-78
2023/04/22 03:30:27;;;;;;;5.53;5.03;;;;;;;;;;5030801;28;20194;-78
2023/04/22 03:32:52;;;;;;;5.57;5.07;;;;;;;;;;5022540;28;20279;-78
2023/04/22 03:35:18;;;;;;;6.77;5.20;;;;;;;;;;5012388;28;20208;-78
2023/04/22 03:37:43;;;;;;;6.97;6.27;;;;;;;;;;5024786;28;20271;-78
2023/04/22 03:40:09;;;;;;;6.00;5.40;;;;;;;;;;5017234;28;20268;-78
2023/04/22 03:42:34;;;;;;;7.17;5.13;;;;;;;;;;5015082;28;20201;-78
2023/04/22 03:44:59;;;;;;;6.10;5.50;;;;;;;;;;5028818;28;20188;-78
2023/04/22 03:47:24;;;;;;;6.60;5.87;;;;;;;;;;5014828;28;20184;-78
2023/04/22 03:49:50;;;;;;;6.77;6.17;;;;;;;;;;5014250;28;20179;-78
2023/04/22 03:52:15;;;;;;;7.10;6.10;;;;;;;;;;5005551;28;20184;-78
2023/04/22 03:54:40;;;;;;;11.00;6.90;;;;;;;;;;5020042;28;20186;-78
2023/04/22 03:57:05;;;;;;;8.17;6.90;;;;;;;;;;5015649;28;20173;-78
2023/04/22 03:59:31;;;;;;;10.20;7.80;;;;;;;;;;5018130;28;20283;-78
2023/04/22 04:01:56;;;;;;;8.70;7.80;;;;;;;;;;5016151;28;20213;-78
2023/04/22 04:04:22;;;;;;;11.00;8.47;;;;;;;;;;5023423;28;20197;-78
2023/04/22 04:06:47;;;;;;;8.70;7.63;;;;;;;;;;5018579;28;20165;-78
2023/04/22 04:09:13;;;;;;;9.30;8.20;;;;;;;;;;5015465;28;20227;-78
2023/04/22 04:11:38;;;;;;;10.17;8.07;;;;;;;;;;5014421;28;20184;-78
2023/04/22 04:14:03;;;;;;;9.03;7.97;;;;;;;;;;5018408;28;20172;-78
2023/04/22 04:16:28;;;;;;;7.73;6.93;;;;;;;;;;5032981;28;20184;-78
2023/04/22 04:18:53;;;;;;;10.30;7.07;;;;;;;;;;5015610;28;20226;-78
2023/04/22 04:21:19;;;;;;;7.77;6.97;;;;;;;;;;5014351;28;20221;-78
2023/04/22 04:23:45;;;;;;;7.23;6.07;;;;;;;;;;5010252;28;20186;-78
2023/04/22 04:26:10;;;;;;;7.27;6.57;;;;;;;;;;5024283;28;20185;-78
2023/04/22 04:28:35;;;;;;;6.77;5.37;;;;;;;;;;5015511;28;20261;-78
2023/04/22 04:31:04;;;;;;;5.73;3.90;;;;;;;;;;5018783;28;20186;-78
2023/04/22 04:33:31;;;;;;;5.40;3.97;;;;;;;;;;5014224;28;20181;-78
2023/04/22 04:35:57;;;;;;;4.13;3.40;;;;;;;;;;5017854;28;20193;-78
2023/04/22 04:38:23;;;;;;;3.27;2.93;;;;;;;;;;5011239;28;20187;-78
2023/04/22 04:40:49;;;;;;;4.27;2.93;;;;;;;;;;5026780;28;20271;-78
2023/04/22 04:43:14;;;;;;;2.83;2.63;;;;;;;;;;5016799;28;20248;-78
2023/04/22 04:45:45;;;;;;;2.50;2.30;;;;;;;;;;5015757;28;20220;-78
2023/04/22 04:48:11;;;;;;;3.00;2.70;;;;;;;;;;5015858;28;20228;-78
2023/04/22 04:50:37;;;;;;;3.20;2.93;;;;;;;;;;5013745;28;20186;-78
2023/04/22 04:53:02;;;;;;;2.17;2.03;;;;;;;;;;5014200;28;20181;-78
2023/04/22 04:55:27;;;;;;;4.03;2.87;;;;;;;;;;5016799;28;20177;-78
2023/04/22 04:57:52;;;;;;;3.37;2.57;;;;;;;;;;5022223;28;20274;-78
2023/04/22 05:00:17;;;;;;;2.70;2.50;;;;;;;;;;5014469;28;20218;-78
2023/04/22 05:02:43;;;;;;;2.50;2.30;;;;;;;;;;5018850;28;20240;-78
2023/04/22 05:05:09;;;;;;;2.30;2.10;;;;;;;;;;5032141;28;20217;-78
2023/04/22 05:07:34;;;;;;;2.20;2.00;;;;;;;;;;5018365;28;20176;-78
2023/04/22 05:10:00;;;;;;;2.27;2.07;;;;;;;;;;5027605;28;20307;-78
2023/04/22 05:12:25;;;;;;;2.43;2.20;;;;;;;;;;5018767;28;20180;-78
2023/04/22 05:14:50;;;;;;;2.00;1.80;;;;;;;;;;5013503;28;20181;-78
2023/04/22 05:17:15;;;;;;;2.20;2.00;;;;;;;;;;5009406;28;20251;-78
2023/04/22 05:19:40;;;;;;;1.50;1.40;;;;;;;;;;5013597;28;20301;-78
2023/04/22 05:22:06;;;;;;;2.10;1.90;;;;;;;;;;5020548;28;20212;-78
2023/04/22 05:24:31;;;;;;;1.83;1.73;;;;;;;;;;5019353;28;20215;-78
2023/04/22 05:26:57;;;;;;;1.90;1.80;;;;;;;;;;5038624;28;20222;-78
2023/04/22 05:29:22;;;;;;;1.83;1.70;;;;;;;;;;5011910;28;20184;-78
2023/04/22 05:31:47;;;;;;;2.00;1.90;;;;;;;;;;5023608;28;20184;-78
2023/04/22 05:34:13;;;;;;;2.17;1.97;;;;;;;;;;5008150;28;20437;-78
2023/04/22 05:36:38;;;;;;;1.90;1.80;;;;;;;;;;5022604;28;20182;-78
2023/04/22 05:39:03;;;;;;;4.50;1.50;;;;;;;;;;5027863;28;20198;-78
2023/04/22 05:41:29;;;;;;;3.70;2.10;;;;;;;;;;5033459;28;20296;-78
2023/04/22 05:43:54;;;;;;;1.60;1.50;;;;;;;;;;5012991;28;20187;-78
2023/04/22 05:46:19;;;;;;;1.83;1.67;;;;;;;;;;5008357;28;20172;-78
2023/04/22 05:48:44;;;;;;;1.97;1.70;;;;;;;;;;5023789;28;20186;-78
2023/04/22 05:51:10;;;;;;;2.33;1.70;;;;;;;;;;5014952;28;20264;-78
2023/04/22 05:53:35;;;;;;;2.20;1.57;;;;;;;;;;5009919;28;20342;-78
2023/04/22 05:56:00;;;;;;;1.63;1.53;;;;;;;;;;5012348;28;20324;-78
2023/04/22 05:58:25;;;;;;;2.47;1.63;;;;;;;;;;5020225;28;20183;-78
2023/04/22 06:00:51;;;;;;;1.97;1.60;;;;;;;;;;5012974;28;20207;-78
2023/04/22 06:03:16;;;;;;;1.47;1.37;;;;;;;;;;5024720;28;20193;-78
2023/04/22 06:05:43;;;;;;;3.13;1.80;;;;;;;;;;5018919;28;20194;-79
2023/04/22 06:08:08;;;;;;;1.47;1.37;;;;;;;;;;5023114;28;20173;-78
2023/04/22 06:10:33;;;;;;;2.13;1.80;;;;;;;;;;5017165;28;20224;-78
2023/04/22 06:12:58;;;;;;;1.97;1.87;;;;;;;;;;5012315;28;20273;-78
2023/04/22 06:15:24;;;;;;;1.67;1.50;;;;;;;;;;5014820;28;20213;-78
2023/04/22 06:17:49;;;;;;;2.30;1.87;;;;;;;;;;5022706;28;20241;-78
2023/04/22 06:20:14;;;;;;;1.60;1.50;;;;;;;;;;5009739;28;20234;-78
2023/04/22 06:22:40;;;;;;;1.53;1.43;;;;;;;;;;5040713;28;20234;-78
2023/04/22 06:25:05;;;;;;;1.83;1.73;;;;;;;;;;5005334;28;20204;-78
2023/04/22 06:27:30;;;;;;;1.60;1.50;;;;;;;;;;5033402;28;20216;-78
2023/04/22 06:29:56;;;;;;;1.70;1.60;;;;;;;;;;5004110;28;20180;-78
2023/04/22 06:32:21;;;;;;;2.07;1.63;;;;;;;;;;5011633;28;20177;-78
2023/04/22 06:34:46;;;;;;;2.40;1.53;;;;;;;;;;5017458;28;20199;-78
2023/04/22 06:37:11;;;;;;;1.87;1.70;;;;;;;;;;5020495;28;20180;-78
2023/04/22 06:39:37;;;;;;;3.90;2.07;;;;;;;;;;5029752;28;20177;-78
2023/04/22 06:42:02;;;;;;;1.50;1.40;;;;;;;;;;5010472;28;20306;-78
2023/04/22 06:44:27;;;;;;;3.77;2.00;;;;;;;;;;5015156;28;20219;-78
2023/04/22 06:46:53;;;;;;;2.03;1.60;;;;;;;;;;5013960;28;20190;-79
2023/04/22 06:49:18;;;;;;;1.70;1.60;;;;;;;;;;5017555;28;20174;-78
2023/04/22 06:51:43;;;;;;;1.83;1.67;;;;;;;;;;5020631;28;20187;-78
2023/04/22 06:54:08;;;;;;;1.60;1.50;;;;;;;;;;5014034;28;20177;-78
2023/04/22 06:56:34;;;;;;;1.97;1.50;;;;;;;;;;5019554;28;20186;-78
2023/04/22 06:59:00;;;;;;;1.40;1.30;;;;;;;;;;5012310;28;20204;-78
2023/04/22 07:01:25;;;;;;;2.07;1.80;;;;;;;;;;5036562;28;20202;-78
2023/04/22 07:03:50;;;;;;;1.70;1.60;;;;;;;;;;5015317;28;20205;-78
2023/04/22 07:06:15;;;;;;;1.93;1.80;;;;;;;;;;5007868;28;20189;-78
2023/04/22 07:08:41;;;;;;;1.57;1.47;;;;;;;;;;5038500;28;20181;-78
2023/04/22 07:11:06;;;;;;;2.63;1.83;;;;;;;;;;5014411;28;20191;-78
2023/04/22 07:13:33;;;;;;;1.70;1.60;;;;;;;;;;5021700;28;20192;-78
2023/04/22 07:15:58;;;;;;;1.70;1.60;;;;;;;;;;5014714;28;20186;-78
2023/04/22 07:18:24;;;;;;;1.80;1.70;;;;;;;;;;5020397;28;20243;-78
2023/04/22 07:20:49;;;;;;;1.40;1.30;;;;;;;;;;5004370;28;20180;-78
2023/04/22 07:23:14;;;;;;;3.67;1.70;;;;;;;;;;5020939;28;20269;-78
2023/04/22 07:25:40;;;;;;;1.80;1.40;;;;;;;;;;5012588;28;20278;-78
2023/04/22 07:28:05;;;;;;;2.80;1.87;;;;;;;;;;5019213;28;20183;-78
2023/04/22 07:30:30;;;;;;;1.63;1.43;;;;;;;;;;5022212;28;20189;-78
2023/04/22 07:32:55;;;;;;;1.50;1.40;;;;;;;;;;5011281;28;20175;-78
2023/04/22 07:35:21;;;;;;;1.70;1.60;;;;;;;;;;5013870;28;20206;-78
2023/04/22 07:37:46;;;;;;;1.67;1.50;;;;;;;;;;5016799;28;20180;-78
2023/04/22 07:40:12;;;;;;;1.57;1.47;;;;;;;;;;5008518;28;20167;-78
2023/04/22 07:42:38;;;;;;;3.27;2.47;;;;;;;;;;5008557;28;20297;-78
2023/04/22 07:45:04;;;;;;;1.60;1.50;;;;;;;;;;5009230;28;20285;-78
2023/04/22 07:47:29;;;;;;;1.43;1.33;;;;;;;;;;5015207;28;20179;-78
2023/04/22 07:49:54;;;;;;;1.60;1.50;;;;;;;;;;5032484;28;20182;-79
2023/04/22 07:52:19;;;;;;;3.77;1.80;;;;;;;;;;5016589;28;20214;-79
2023/04/22 07:54:45;;;;;;;1.63;1.53;;;;;;;;;;5019255;28;20298;-79
2023/04/22 07:57:10;;;;;;;2.30;1.57;;;;;;;;;;5032484;28;20177;-79
2023/04/22 07:59:35;;;;;;;1.70;1.60;;;;;;;;;;5028198;28;20180;-78
2023/04/22 08:02:01;;;;;;;1.60;1.50;;;;;;;;;;5012233;28;20218;-78
2023/04/22 08:04:26;;;;;;;2.00;1.53;;;;;;;;;;5010005;28;20241;-79
2023/04/22 08:06:51;;;;;;;1.70;1.60;;;;;;;;;;5020315;28;20232;-79
2023/04/22 08:09:16;;;;;;;2.33;1.50;;;;;;;;;;5031074;28;20265;-79
2023/04/22 08:11:41;;;;;;;3.43;3.23;;;;;;;;;;5024973;28;20168;-79
2023/04/22 08:14:07;;;;;;;1.93;1.73;;;;;;;;;;5032077;28;20184;-79
2023/04/22 08:16:32;;;;;;;2.50;1.40;;;;;;;;;;5023712;28;20221;-79
2023/04/22 08:18:57;;;;;;;3.87;3.07;;;;;;;;;;5034682;28;20226;-79
2023/04/22 08:21:27;;;;;;;2.07;1.87;;;;;;;;;;5020920;28;20239;-79
2023/04/22 08:23:53;;;;;;;2.90;2.70;;;;;;;;;;5022481;28;20167;-79
2023/04/22 08:26:19;;;;;;;1.40;1.30;;;;;;;;;;5012706;28;20173;-78
2023/04/22 08:28:44;;;;;;;3.43;1.70;;;;;;;;;;5013279;28;20180;-79
2023/04/22 08:31:11;;;;;;;2.57;2.37;;;;;;;;;;5026819;28;20184;-79
2023/04/22 08:33:36;;;;;;;1.97;1.80;;;;;;;;;;5007776;28;20232;-79
2023/04/22 08:36:02;;;;;;;2.93;2.73;;;;;;;;;;5010936;28;20261;-78
2023/04/22 08:38:27;;;;;;;3.10;2.30;;;;;;;;;;5018206;28;20182;-79
2023/04/22 08:40:54;;;;;;;5.67;4.77;;;;;;;;;;5012465;28;20189;-79
2023/04/22 08:43:20;;;;;;;1.63;1.53;;;;;;;;;;5006970;28;20181;-79
2023/04/22 08:45:46;;;;;;;1.60;1.50;;;;;;;;;;5003948;28;20180;-79
2023/04/22 08:48:11;;;;;;;1.60;1.50;;;;;;;;;;5014965;28;20179;-79
2023/04/22 08:50:38;;;;;;;1.70;1.60;;;;;;;;;;5013655;28;20184;-79
2023/04/22 08:53:03;;;;;;;3.87;2.40;;;;;;;;;;5019291;28;20173;-79
2023/04/22 08:55:29;;;;;;;2.00;1.80;;;;;;;;;;5015205;28;20233;-79
2023/04/22 08:57:54;;;;;;;2.10;1.90;;;;;;;;;;5012714;28;20202;-79
2023/04/22 09:00:23;;;;;;;2.77;2.50;;;;;;;;;;5022028;28;20235;-79
2023/04/22 09:02:49;;;;;;;1.87;1.77;;;;;;;;;;5017855;28;20241;-80
2023/04/22 09:05:14;;;;;;;1.70;1.60;;;;;;;;;;5010721;28;20179;-80
2023/04/22 09:07:41;;;;;;;2.73;1.70;;;;;;;;;;5017604;28;20177;-80
2023/04/22 09:10:07;;;;;;;2.10;1.90;;;;;;;;;;5024792;28;20187;-80
2023/04/22 09:12:32;;;;;;;3.50;1.97;;;;;;;;;;5031281;28;20262;-80
2023/04/22 09:14:57;;;;;;;2.00;1.80;;;;;;;;;;5016931;28;20260;-79
2023/04/22 09:17:30;;;;;;;2.00;1.80;;;;;;;;;;5017678;28;20182;-79
2023/04/22 09:19:56;;;;;;;2.20;2.00;;;;;;;;;;4994909;28;20212;-79
2023/04/22 09:22:21;;;;;;;3.07;1.80;;;;;;;;;;4991325;28;20202;-79
2023/04/22 09:24:50;;;;;;;2.47;2.27;;;;;;;;;;5008718;28;20182;-79
2023/04/22 09:27:21;;;;;;;2.43;2.23;;;;;;;;;;5001800;28;20255;-80
2023/04/22 09:29:47;;;;;;;4.77;2.30;;;;;;;;;;4995737;28;20178;-79
2023/04/22 09:32:12;;;;;;;3.60;2.57;;;;;;;;;;4996090;28;20184;-80
2023/04/22 09:34:51;;;;;;;2.93;2.43;;;;;;;;;;4997254;28;20180;-80
2023/04/22 09:37:34;;;;;;;2.50;2.30;;;;;;;;;;5005297;28;20179;-80
2023/04/22 09:40:00;;;;;;;2.60;2.40;;;;;;;;;;4997906;28;20227;-80
2023/04/22 09:42:25;;;;;;;4.37;2.50;;;;;;;;;;4991413;28;20241;-80
2023/04/22 09:44:54;;;;;;;3.00;2.70;;;;;;;;;;4990536;28;20206;-80
2023/04/22 09:47:20;;;;;;;2.27;2.07;;;;;;;;;;5014564;28;20180;-80
2023/04/22 09:49:49;;;;;;;2.40;2.20;;;;;;;;;;4996935;28;20193;-80
2023/04/22 09:52:26;;;;;;;4.00;2.57;;;;;;;;;;4986626;28;20317;-80
2023/04/22 09:54:52;;;;;;;2.50;2.30;;;;;;;;;;4991795;28;20229;-80
2023/04/22 09:57:17;;;;;;;2.13;1.93;;;;;;;;;;4994091;28;20293;-80
2023/04/22 09:59:43;;;;;;;2.60;2.40;;;;;;;;;;4994888;28;20326;-80
2023/04/22 10:02:08;;;;;;;4.50;2.47;;;;;;;;;;4995082;28;20207;-80
2023/04/22 10:04:34;;;;;;;2.13;1.93;;;;;;;;;;4999841;28;20180;-81
2023/04/22 10:07:01;;;;;;;1.73;1.63;;;;;;;;;;5006063;28;20182;-80
2023/04/22 10:09:26;;;;;;;3.17;2.10;;;;;;;;;;5003979;28;20181;-80
2023/04/22 10:11:52;;;;;;;3.10;2.10;;;;;;;;;;4995897;28;20184;-80
2023/04/22 10:14:18;;;;;;;2.20;2.00;;;;;;;;;;4999322;28;20191;-80
2023/04/22 10:16:45;;;;;;;3.67;2.13;;;;;;;;;;5004938;28;20184;-80
2023/04/22 10:19:12;;;;;;;2.00;1.90;;;;;;;;;;5011347;28;20244;-80
2023/04/22 10:21:41;;;;;;;4.60;2.37;;;;;;;;;;5025987;28;20228;-80
2023/04/22 10:24:06;;;;;;;2.70;2.13;;;;;;;;;;5029834;28;20184;-80
2023/04/22 10:26:39;;;;;;;3.33;2.10;;;;;;;;;;5023657;28;20189;-80
2023/04/22 10:29:06;;;;;;;3.70;2.40;;;;;;;;;;5022762;28;20186;-81
2023/04/22 10:31:31;;;;;;;4.70;2.17;;;;;;;;;;5023445;28;20183;-80
2023/04/22 10:34:13;;;;;;;3.33;2.00;;;;;;;;;;5018338;28;20208;-80
2023/04/22 10:36:52;;;;;;;2.00;1.90;;;;;;;;;;5036273;28;20197;-80
2023/04/22 10:39:17;;;;;;;3.27;2.10;;;;;;;;;;5032604;28;20176;-80
2023/04/22 10:41:48;;;;;;;6.83;2.43;;;;;;;;;;5034623;28;20202;-80
2023/04/22 10:44:14;;;;;;;4.10;2.10;;;;;;;;;;5009536;28;20206;-80
2023/04/22 10:46:41;;;;;;;3.33;2.10;;;;;;;;;;5027090;28;20252;-80
2023/04/22 10:49:11;;;;;;;2.40;1.67;;;;;;;;;;5015068;28;20184;-80
2023/04/22 10:51:43;;;;;;;3.67;2.53;;;;;;;;;;5019863;28;20187;-81
2023/04/22 10:54:35;;;;;;;3.17;1.93;;;;;;;;;;5028958;28;20194;-80
2023/04/22 10:57:05;;;;;;;3.83;2.17;;;;;;;;;;5013207;28;20212;-80
2023/04/22 10:59:32;;;;;;;2.83;2.63;;;;;;;;;;5008291;28;20193;-80
2023/04/22 11:02:07;;;;;;;2.37;2.00;;;;;;;;;;5009281;28;20229;-80
2023/04/22 11:04:32;;;;;;;4.17;2.63;;;;;;;;;;5020822;28;20189;-80
2023/04/22 11:07:11;;;;;;;2.30;2.10;;;;;;;;;;5019573;28;20179;-80
2023/04/22 11:09:43;;;;;;;4.00;2.20;;;;;;;;;;5022421;28;20180;-80
2023/04/22 11:12:27;;;;;;;4.23;2.90;;;;;;;;;;5015297;28;20188;-80
2023/04/22 11:14:52;;;;;;;3.30;3.00;;;;;;;;;;5018387;28;20175;-81
2023/04/22 11:17:18;;;;;;;2.40;2.20;;;;;;;;;;5011250;28;20178;-80
2023/04/22 11:19:43;;;;;;;2.13;1.90;;;;;;;;;;4996100;28;20254;-80
2023/04/22 11:22:09;;;;;;;3.13;1.93;;;;;;;;;;5000131;28;20206;-80
2023/04/22 11:24:35;;;;;;;2.30;1.90;;;;;;;;;;5000323;28;20193;-80
2023/04/22 11:27:00;;;;;;;3.20;2.10;;;;;;;;;;4994456;28;20244;-80
2023/04/22 11:29:25;;;;;;;2.57;1.90;;;;;;;;;;4992468;28;20268;-80
2023/04/22 11:31:50;;;;;;;6.10;1.97;;;;;;;;;;5027027;28;20187;-80
2023/04/22 11:34:16;;;;;;;2.33;2.13;;;;;;;;;;4996777;28;20181;-80
2023/04/22 11:36:44;;;;;;;2.50;2.30;;;;;;;;;;4994316;28;20184;-80
2023/04/22 11:39:13;;;;;;;6.47;2.27;;;;;;;;;;4992841;28;20203;-80
2023/04/22 11:41:39;;;;;;;3.00;2.70;;;;;;;;;;5027759;28;20240;-80
2023/04/22 11:44:05;;;;;;;2.00;1.90;;;;;;;;;;5031470;28;20174;-80
2023/04/22 11:46:30;;;;;;;2.70;2.50;;;;;;;;;;4989439;28;20187;-81
2023/04/22 11:49:12;;;;;;;2.20;1.83;;;;;;;;;;4994050;28;20210;-81
2023/04/22 11:51:50;;;;;;;4.00;2.10;;;;;;;;;;4987666;28;20190;-80
2023/04/22 11:54:15;;;;;;;4.13;1.90;;;;;;;;;;4986342;28;20190;-80
2023/04/22 11:56:40;;;;;;;2.10;1.87;;;;;;;;;;4987912;28;20182;-81
2023/04/22 11:59:06;;;;;;;5.40;1.77;;;;;;;;;;4992220;28;20185;-86
2023/04/22 12:01:31;;;;;;;4.53;1.93;;;;;;;;;;4997603;28;20193;-86
2023/04/22 12:04:00;;;;;;;2.37;2.07;;;;;;;;;;5002436;28;20200;-85
2023/04/22 12:06:28;;;;;;;3.37;2.10;;;;;;;;;;5013229;28;20207;-86
2023/04/22 12:08:59;;;;;;;2.07;1.87;;;;;;;;;;5005246;28;20190;-85
2023/04/22 12:11:24;;;;;;;2.93;1.80;;;;;;;;;;4992279;28;20218;-86
2023/04/22 12:13:50;;;;;;;2.40;2.00;;;;;;;;;;4997252;28;20180;-86
2023/04/22 12:16:18;;;;;;;4.63;2.00;;;;;;;;;;5015131;28;20191;-85
2023/04/22 12:18:46;;;;;;;2.93;2.10;;;;;;;;;;5007918;28;20238;-86
2023/04/22 12:21:13;;;;;;;3.00;1.83;;;;;;;;;;5024016;28;20240;-86
2023/04/22 12:23:48;;;;;;;7.27;6.27;;;;;;;;;;5013156;28;20182;-86
2023/04/22 12:26:14;;;;;;;2.20;2.00;;;;;;;;;;5014025;28;20180;-85
2023/04/22 12:28:42;;;;;;;2.00;1.77;;;;;;;;;;5013215;28;20197;-86
2023/04/22 12:31:08;;;;;;;2.20;2.00;;;;;;;;;;5024108;28;20175;-86
2023/04/22 12:33:33;;;;;;;6.87;4.33;;;;;;;;;;5017624;28;20181;-86
2023/04/22 12:35:59;;;;;;;6.57;4.70;;;;;;;;;;5027924;28;20180;-86
2023/04/22 12:38:27;;;;;;;7.73;3.23;;;;;;;;;;5017736;28;20175;-86
2023/04/22 12:40:53;;;;;;;3.43;2.40;;;;;;;;;;5019583;28;20180;-86
2023/04/22 12:43:18;;;;;;;2.27;2.10;;;;;;;;;;5013518;28;20171;-86
2023/04/22 12:45:44;;;;;;;4.00;3.47;;;;;;;;;;5012706;28;20205;-86
2023/04/22 12:48:09;;;;;;;3.13;2.63;;;;;;;;;;5013147;28;20179;-86
2023/04/22 12:50:37;;;;;;;3.67;2.17;;;;;;;;;;5013596;28;20194;-86
2023/04/22 12:53:02;;;;;;;5.57;2.53;;;;;;;;;;5021941;28;20236;-85
2023/04/22 12:55:28;;;;;;;2.57;2.10;;;;;;;;;;5015796;28;20190;-86
2023/04/22 12:57:53;;;;;;;2.50;2.30;;;;;;;;;;5011187;28;20182;-86
2023/04/22 13:00:19;;;;;;;5.83;3.00;;;;;;;;;;5008977;28;20301;-86
2023/04/22 13:02:45;;;;;;;3.27;2.40;;;;;;;;;;5007678;28;20236;-86
2023/04/22 13:05:11;;;;;;;3.53;2.17;;;;;;;;;;5012665;28;20181;-85
2023/04/22 13:07:37;;;;;;;2.20;2.00;;;;;;;;;;5013543;28;20204;-85
2023/04/22 13:10:03;;;;;;;3.57;2.40;;;;;;;;;;5011763;28;20197;-86
2023/04/22 13:12:29;;;;;;;3.37;2.10;;;;;;;;;;5035161;28;20232;-86
2023/04/22 13:14:54;;;;;;;2.97;1.90;;;;;;;;;;5017373;28;20196;-86
2023/04/22 13:17:20;;;;;;;3.63;2.33;;;;;;;;;;5028942;28;20184;-86
2023/04/22 13:19:49;;;;;;;2.00;1.90;;;;;;;;;;5010548;28;20280;-86
2023/04/22 13:22:15;;;;;;;2.50;2.30;;;;;;;;;;5008112;28;20233;-86
2023/04/22 13:24:41;;;;;;;2.40;2.20;;;;;;;;;;5012588;28;20236;-86
2023/04/22 13:27:07;;;;;;;2.60;2.10;;;;;;;;;;5009531;28;20253;-86
2023/04/22 13:29:32;;;;;;;5.50;2.27;;;;;;;;;;5012155;28;20173;-86
2023/04/22 13:31:58;;;;;;;2.27;2.00;;;;;;;;;;5027662;28;20209;-86
2023/04/22 13:34:23;;;;;;;2.20;2.00;;;;;;;;;;5008644;28;20180;-86
2023/04/22 13:36:48;;;;;;;4.27;1.90;;;;;;;;;;5010959;28;20189;-86
2023/04/22 13:39:14;;;;;;;3.03;2.03;;;;;;;;;;5012686;28;20195;-86
2023/04/22 13:41:39;;;;;;;2.73;2.00;;;;;;;;;;5010663;28;20221;-86
2023/04/22 13:44:05;;;;;;;3.67;2.43;;;;;;;;;;5012800;28;20181;-86
2023/04/22 13:46:30;;;;;;;2.23;2.00;;;;;;;;;;5007258;28;20210;-86
2023/04/22 13:48:55;;;;;;;2.37;2.17;;;;;;;;;;5013419;28;20190;-85
2023/04/22 13:51:23;;;;;;;2.83;2.07;;;;;;;;;;5012042;28;20217;-86
2023/04/22 13:53:49;;;;;;;2.67;2.03;;;;;;;;;;5011295;28;20183;-85
2023/04/22 13:56:14;;;;;;;3.10;2.23;;;;;;;;;;5016917;28;20237;-86
2023/04/22 13:58:41;;;;;;;3.77;1.90;;;;;;;;;;5012212;28;20184;-85
2023/04/22 14:01:06;;;;;;;2.30;2.10;;;;;;;;;;5010056;28;20181;-85
2023/04/22 14:03:32;;;;;;;3.53;2.03;;;;;;;;;;5018001;28;20204;-86
2023/04/22 14:05:57;;;;;;;2.37;2.00;;;;;;;;;;5007630;28;20199;-85
2023/04/22 14:08:22;;;;;;;3.40;2.27;;;;;;;;;;5023635;28;20189;-85
2023/04/22 14:10:48;;;;;;;3.70;2.23;;;;;;;;;;5011770;28;20278;-85
2023/04/22 14:13:13;;;;;;;2.90;2.70;;;;;;;;;;5021573;28;20188;-85
2023/04/22 14:15:38;;;;;;;3.63;2.30;;;;;;;;;;5016479;28;20180;-85
2023/04/22 14:18:04;;;;;;;5.77;2.43;;;;;;;;;;5018587;28;20287;-85
2023/04/22 14:20:29;;;;;;;3.20;2.27;;;;;;;;;;5018177;28;20273;-85
2023/04/22 14:22:54;;;;;;;4.37;2.80;;;;;;;;;;5010229;28;20201;-85
2023/04/22 14:25:20;;;;;;;2.97;2.43;;;;;;;;;;5013725;28;20188;-85
2023/04/22 14:27:45;;;;;;;3.27;2.77;;;;;;;;;;5004926;28;20181;-85
2023/04/22 14:30:11;;;;;;;2.47;2.27;;;;;;;;;;5028582;28;20275;-85
2023/04/22 14:32:36;;;;;;;2.10;1.90;;;;;;;;;;5018240;28;20245;-85
2023/04/22 14:35:01;;;;;;;2.07;1.93;;;;;;;;;;5010024;28;20197;-85
2023/04/22 14:37:27;;;;;;;3.50;2.10;;;;;;;;;;5013278;28;20188;-84